Time;durP1;ratioP1;P1;durP2;ratioP2;P2;SDS_P1;SDS_P2;PMS_P1;PMS_P2;Temp;Humidity;BMP_temperature;BMP_pressure;BME280_temperature;BME280_humidity;BME280_pressure;Samples;Min_cycle;Max_cycle;Signal;HPM_P1;HPM_P2
2022/04/06 00:01:15;;;;;;;26.50;14.57;;;;;;;8.74;92.44;100354.91;5092932;28;20480;-55
2022/04/06 00:03:43;;;;;;;29.55;15.48;;;;;;;8.70;92.74;100358.56;5092734;28;20031;-54
2022/04/06 00:06:09;;;;;;;26.20;14.88;;;;;;;8.73;92.13;100352.47;5092499;28;20048;-54
2022/04/06 00:08:34;;;;;;;25.55;14.93;;;;;;;8.75;91.96;100358.50;5092214;28;20039;-55
2022/04/06 00:10:59;;;;;;;28.83;14.65;;;;;;;8.77;91.33;100353.50;5092581;28;20495;-55
2022/04/06 00:13:24;;;;;;;27.20;15.07;;;;;;;8.78;91.34;100346.84;5092110;28;20024;-53
2022/04/06 00:15:50;;;;;;;27.05;15.25;;;;;;;8.71;91.26;100350.03;5092823;28;20095;-55
2022/04/06 00:18:15;;;;;;;28.13;14.60;;;;;;;8.72;91.33;100351.66;5092423;28;20024;-55
2022/04/06 00:20:40;;;;;;;29.42;15.25;;;;;;;8.69;92.13;100351.44;5092250;28;20058;-56
2022/04/06 00:23:06;;;;;;;31.45;16.10;;;;;;;8.66;92.14;100344.59;5092440;28;20042;-56
2022/04/06 00:25:32;;;;;;;25.92;15.07;;;;;;;8.67;92.37;100346.22;5092158;28;20024;-56
2022/04/06 00:27:58;;;;;;;27.73;14.57;;;;;;;8.66;92.01;100341.03;5092472;28;20070;-56
2022/04/06 00:30:23;;;;;;;27.95;14.88;;;;;;;8.65;92.39;100342.94;5092371;28;20032;-54
2022/04/06 00:32:48;;;;;;;26.67;14.82;;;;;;;8.65;92.06;100340.19;5092595;28;20168;-54
2022/04/06 00:35:29;;;;;;;29.67;14.60;;;;;;;8.64;91.82;100341.34;5092464;28;20464;-52
2022/04/06 00:38:02;;;;;;;26.55;14.57;;;;;;;8.64;91.59;100341.34;5092375;28;20039;-55
2022/04/06 00:40:28;;;;;;;25.23;14.85;;;;;;;8.60;92.06;100333.97;5093985;28;20545;-56
2022/04/06 00:42:53;;;;;;;28.10;14.90;;;;;;;8.58;92.07;100334.28;5096899;28;20032;-56
2022/04/06 00:45:23;;;;;;;26.80;14.43;;;;;;;8.63;91.97;100336.09;5096847;28;20030;-55
2022/04/06 00:47:50;;;;;;;25.35;14.63;;;;;;;8.59;91.67;100327.63;5096274;28;20548;-55
2022/04/06 00:50:15;;;;;;;24.27;14.38;;;;;;;8.59;91.97;100324.88;5096235;28;20056;-56
2022/04/06 00:52:41;;;;;;;25.75;14.57;;;;;;;8.53;92.17;100326.91;5096928;28;20103;-56
2022/04/06 00:55:08;;;;;;;29.15;14.60;;;;;;;8.53;92.05;100326.13;5096445;28;20028;-56
2022/04/06 00:57:34;;;;;;;28.33;14.25;;;;;;;8.56;91.86;100326.31;5096670;28;20032;-53
2022/04/06 01:00:00;;;;;;;29.58;14.35;;;;;;;8.52;91.84;100324.47;5096686;28;20092;-54
2022/04/06 01:02:26;;;;;;;25.48;14.38;;;;;;;8.54;91.86;100325.78;5096430;28;20054;-52
2022/04/06 01:04:51;;;;;;;26.17;14.00;;;;;;;8.54;92.16;100322.22;5096192;28;20048;-52
2022/04/06 01:07:19;;;;;;;25.88;13.75;;;;;;;8.53;91.81;100315.09;5095888;28;20491;-55
2022/04/06 01:09:44;;;;;;;26.85;15.30;;;;;;;8.54;91.38;100313.97;5095714;28;20045;-55
2022/04/06 01:12:10;;;;;;;27.33;14.13;;;;;;;8.51;91.86;100312.59;5095442;28;20081;-55
2022/04/06 01:14:38;;;;;;;23.98;13.45;;;;;;;8.49;91.96;100317.63;5095966;28;20024;-55
2022/04/06 01:17:07;;;;;;;24.02;13.25;;;;;;;8.48;91.56;100309.66;5095481;28;20031;-55
2022/04/06 01:19:34;;;;;;;26.17;13.45;;;;;;;8.49;91.61;100317.63;5095996;28;20032;-55
2022/04/06 01:22:01;;;;;;;28.58;13.60;;;;;;;8.50;91.25;100305.47;5095462;28;20028;-54
2022/04/06 01:24:26;;;;;;;26.20;13.93;;;;;;;8.49;91.74;100311.28;5095396;28;20089;-54
2022/04/06 01:26:52;;;;;;;24.50;13.13;;;;;;;8.48;91.62;100306.91;5095001;28;20540;-51
2022/04/06 01:29:17;;;;;;;25.63;13.45;;;;;;;8.49;90.96;100303.03;5095851;28;20028;-56
2022/04/06 01:31:42;;;;;;;26.65;13.27;;;;;;;8.50;91.39;100304.66;5095091;28;20030;-55
2022/04/06 01:34:08;;;;;;;24.98;13.27;;;;;;;8.51;90.72;100298.03;5095415;28;20056;-55
2022/04/06 01:36:33;;;;;;;25.35;12.40;;;;;;;8.47;90.92;100288.69;5094670;28;20027;-54
2022/04/06 01:38:58;;;;;;;24.70;13.13;;;;;;;8.47;91.30;100294.19;5095763;28;20028;-55
2022/04/06 01:41:30;;;;;;;22.17;12.45;;;;;;;8.47;90.82;100294.19;5095653;28;20059;-55
2022/04/06 01:43:56;;;;;;;30.40;14.32;;;;;;;8.48;90.72;100295.88;5095582;28;20469;-55
2022/04/06 01:46:21;;;;;;;24.75;12.70;;;;;;;8.45;90.62;100297.28;5096144;28;20111;-55
2022/04/06 01:54:14;;;;;;;25.90;13.25;;;;;;;8.45;90.56;100290.94;5095243;28;20039;-54
2022/04/06 01:56:39;;;;;;;24.00;13.75;;;;;;;8.40;90.43;100284.41;5095150;28;20107;-54
2022/04/06 01:59:05;;;;;;;24.25;13.20;;;;;;;8.35;90.52;100287.28;5095101;28;20102;-55
2022/04/06 02:01:30;;;;;;;28.98;12.98;;;;;;;8.38;90.30;100296.88;5077664;28;20077;-55
2022/04/06 02:03:56;;;;;;;24.02;12.45;;;;;;;8.43;89.59;100289.31;5095157;28;20027;-54
2022/04/06 02:06:21;;;;;;;28.23;12.82;;;;;;;8.40;89.69;100280.84;5094688;28;20058;-55
2022/04/06 02:08:46;;;;;;;25.85;12.25;;;;;;;8.39;89.92;100284.72;5094092;28;20591;-54
2022/04/06 02:11:11;;;;;;;25.67;12.63;;;;;;;8.40;89.69;100287.16;5094965;28;20164;-54
2022/04/06 02:13:38;;;;;;;25.67;13.00;;;;;;;8.42;89.22;100284.09;5094646;28;20063;-55
2022/04/06 02:16:04;;;;;;;21.83;12.48;;;;;;;8.37;89.83;100279.50;5095011;28;20055;-54
2022/04/06 02:18:29;;;;;;;23.90;11.57;;;;;;;8.35;90.01;100279.00;5094251;28;20054;-53
2022/04/06 02:20:54;;;;;;;23.95;12.18;;;;;;;8.35;89.89;100276.25;5094122;28;20086;-55
2022/04/06 02:23:20;;;;;;;22.40;12.07;;;;;;;8.33;89.39;100278.47;5094758;28;20024;-55
2022/04/06 02:25:45;;;;;;;26.13;12.30;;;;;;;8.31;90.09;100272.47;5094316;28;20047;-53
2022/04/06 02:28:11;;;;;;;23.52;11.90;;;;;;;8.29;89.61;100271.94;5093487;28;20028;-53
2022/04/06 02:30:37;;;;;;;24.30;12.38;;;;;;;8.30;89.22;100264.50;5074832;28;20024;-55
2022/04/06 02:33:02;;;;;;;21.80;12.00;;;;;;;8.29;89.24;100277.44;5074523;28;20355;-55
2022/04/06 02:35:27;;;;;;;26.35;11.48;;;;;;;8.33;88.52;100267.47;5075008;28;20082;-53
2022/04/06 02:37:53;;;;;;;24.52;11.50;;;;;;;8.26;89.46;100259.59;5074460;28;20373;-54
2022/04/06 02:40:18;;;;;;;23.02;12.10;;;;;;;8.27;89.31;100265.91;5056528;28;20025;-55
2022/04/06 02:42:44;;;;;;;23.33;12.25;;;;;;;8.30;88.47;100267.25;5075080;28;20174;-55
2022/04/06 02:45:10;;;;;;;23.58;11.38;;;;;;;8.23;88.33;100257.44;5074675;28;20032;-55
2022/04/06 02:47:36;;;;;;;22.77;12.50;;;;;;;8.26;88.53;100267.06;5074463;28;20027;-56
2022/04/06 02:50:03;;;;;;;25.00;12.18;;;;;;;8.27;88.22;100263.97;5074399;28;20032;-55
2022/04/06 02:52:29;;;;;;;22.95;12.80;;;;;;;8.27;87.85;100252.13;5074189;28;20117;-55
2022/04/06 02:54:55;;;;;;;23.60;11.60;;;;;;;8.25;88.01;100255.19;5074254;28;20056;-54
2022/04/06 02:57:20;;;;;;;21.13;11.73;;;;;;;8.23;88.29;100262.16;5074194;28;20101;-54
2022/04/06 02:59:45;;;;;;;22.30;12.23;;;;;;;8.20;88.37;100259.97;5074414;28;20540;-54
2022/04/06 03:02:10;;;;;;;21.48;11.48;;;;;;;8.20;88.03;100249.78;5074175;28;20025;-56
2022/04/06 03:04:36;;;;;;;23.70;11.60;;;;;;;8.20;87.62;100244.28;5073788;28;20036;-54
2022/04/06 03:07:01;;;;;;;22.33;11.80;;;;;;;8.17;87.70;100252.34;5056035;28;20107;-55
2022/04/06 03:09:26;;;;;;;21.65;11.90;;;;;;;8.14;87.80;100244.69;5073967;28;20024;-51
2022/04/06 03:11:51;;;;;;;20.73;11.60;;;;;;;8.11;87.43;100246.13;5073396;28;20039;-54
2022/04/06 03:14:17;;;;;;;24.95;11.65;;;;;;;8.11;87.97;100249.66;5073549;28;20024;-53
2022/04/06 03:16:42;;;;;;;23.63;11.05;;;;;;;8.09;87.56;100242.84;5073945;28;20024;-55
2022/04/06 03:19:07;;;;;;;23.08;11.50;;;;;;;8.07;87.64;100242.31;5074217;28;20028;-53
2022/04/06 03:21:32;;;;;;;22.45;11.75;;;;;;;8.04;88.03;100235.50;5055452;28;20115;-55
2022/04/06 03:23:58;;;;;;;21.38;11.88;;;;;;;8.05;87.42;100228.84;5074394;28;20021;-55
2022/04/06 03:26:23;;;;;;;25.15;11.73;;;;;;;8.05;86.78;100230.78;5073131;28;20476;-54
2022/04/06 03:28:48;;;;;;;26.00;12.00;;;;;;;8.03;86.72;100225.59;5073117;28;20035;-52
2022/04/06 03:31:13;;;;;;;22.73;11.68;;;;;;;8.00;87.35;100217.13;5073450;28;20055;-55
2022/04/06 03:33:39;;;;;;;19.95;11.13;;;;;;;7.98;86.94;100220.19;5073294;28;20050;-56
2022/04/06 03:36:04;;;;;;;21.85;11.10;;;;;;;7.95;86.68;100216.06;5073576;28;20028;-56
2022/04/06 03:38:29;;;;;;;21.33;11.10;;;;;;;7.95;86.64;100202.31;5073540;28;20025;-52
2022/04/06 03:40:55;;;;;;;21.42;11.13;;;;;;;7.92;86.34;100191.09;5073611;28;20111;-55
2022/04/06 03:43:21;;;;;;;22.05;11.30;;;;;;;7.99;85.32;100196.19;5073410;28;20103;-54
2022/04/06 03:45:46;;;;;;;20.92;12.15;;;;;;;7.96;85.38;100197.63;5073688;28;20058;-53
2022/04/06 03:48:12;;;;;;;24.02;11.40;;;;;;;7.92;85.42;100186.41;5072872;28;20025;-54
2022/04/06 03:50:38;;;;;;;24.75;12.18;;;;;;;7.94;85.68;100192.41;5073248;28;20024;-55
2022/04/06 03:53:03;;;;;;;21.98;11.27;;;;;;;7.93;85.64;100198.22;5073647;28;20027;-54
2022/04/06 03:55:28;;;;;;;21.00;11.13;;;;;;;7.93;85.21;100193.56;5073663;28;20048;-54
2022/04/06 03:57:54;;;;;;;21.52;11.40;;;;;;;7.90;85.11;100191.41;5073385;28;20024;-54
2022/04/06 04:00:19;;;;;;;20.98;10.30;;;;;;;7.91;84.91;100190.28;5073284;28;20480;-54
2022/04/06 04:02:46;;;;;;;18.05;10.50;;;;;;;7.91;85.16;100194.97;5073454;28;20098;-53
2022/04/06 04:05:12;;;;;;;20.63;11.18;;;;;;;7.88;84.73;100199.13;5073209;28;20067;-51
2022/04/06 04:07:37;;;;;;;19.23;10.63;;;;;;;7.91;84.68;100198.53;5073430;28;20024;-55
2022/04/06 04:10:14;;;;;;;18.52;10.45;;;;;;;7.90;84.87;100194.16;5072966;28;20021;-53
2022/04/06 04:12:39;;;;;;;21.85;10.98;;;;;;;7.93;83.96;100193.56;5073254;28;20032;-55
2022/04/06 04:15:05;;;;;;;22.50;11.10;;;;;;;7.93;84.05;100196.31;5072562;28;20017;-55
2022/04/06 04:17:31;;;;;;;20.85;10.60;;;;;;;7.88;84.23;100195.59;5073034;28;20057;-55
2022/04/06 04:19:56;;;;;;;20.17;10.70;;;;;;;7.89;83.79;100191.69;5072865;28;20025;-55
2022/04/06 04:22:22;;;;;;;21.25;10.38;;;;;;;7.86;84.32;100190.34;5073175;28;20032;-55
2022/04/06 04:24:47;;;;;;;22.40;10.68;;;;;;;7.90;83.44;100194.16;5073284;28;20446;-54
2022/04/06 04:27:12;;;;;;;18.17;10.30;;;;;;;7.90;83.11;100188.66;5073164;28;20036;-53
2022/04/06 04:29:38;;;;;;;22.52;10.27;;;;;;;7.90;83.44;100185.88;5073437;28;20377;-56
2022/04/06 04:32:04;;;;;;;20.67;10.40;;;;;;;7.86;83.44;100187.59;5072943;28;20020;-55
2022/04/06 04:34:29;;;;;;;20.92;10.63;;;;;;;7.94;82.98;100186.09;5073334;28;20032;-56
2022/04/06 04:36:55;;;;;;;21.13;10.38;;;;;;;7.89;83.10;100189.75;5073056;28;20108;-55
2022/04/06 04:39:20;;;;;;;22.75;10.73;;;;;;;7.91;83.54;100183.94;5073299;28;20385;-53
2022/04/06 04:41:47;;;;;;;22.48;10.52;;;;;;;7.93;83.00;100188.03;5073028;28;20031;-55
2022/04/06 04:44:12;;;;;;;20.38;10.05;;;;;;;7.90;83.34;100182.31;5073046;28;20051;-54
2022/04/06 04:46:38;;;;;;;19.40;10.73;;;;;;;7.88;83.42;100185.38;5073254;28;20024;-55
2022/04/06 04:49:04;;;;;;;22.50;10.48;;;;;;;7.89;83.88;100169.66;5073211;28;20056;-55
2022/04/06 04:51:29;;;;;;;21.15;10.63;;;;;;;7.92;83.77;100171.81;5073023;28;20053;-55
2022/04/06 04:53:57;;;;;;;21.10;11.35;;;;;;;7.90;84.17;100185.06;5055130;28;20074;-55
2022/04/06 04:56:24;;;;;;;22.58;11.45;;;;;;;7.92;84.08;100180.06;5072903;28;20021;-55
2022/04/06 04:58:49;;;;;;;23.60;12.85;;;;;;;7.90;84.65;100166.63;5072882;28;20025;-56
2022/04/06 05:01:15;;;;;;;22.27;12.60;;;;;;;7.92;85.16;100175.38;5072880;28;20131;-53
2022/04/06 05:03:40;;;;;;;21.77;12.10;;;;;;;7.90;85.35;100172.13;5072820;28;20032;-55
2022/04/06 05:06:06;;;;;;;22.35;12.48;;;;;;;7.91;85.49;100165.50;5072293;28;20054;-54
2022/04/06 05:08:31;;;;;;;24.70;12.80;;;;;;;7.94;85.69;100159.34;5072978;28;20052;-53
2022/04/06 05:10:56;;;;;;;21.67;12.25;;;;;;;7.93;85.70;100166.00;5072371;28;20358;-54
2022/04/06 05:13:21;;;;;;;24.75;12.45;;;;;;;7.93;85.96;100162.44;5072568;28;20028;-54
2022/04/06 05:15:47;;;;;;;24.20;12.10;;;;;;;7.93;85.88;100160.50;5072758;28;20020;-54
2022/04/06 05:18:12;;;;;;;27.35;13.02;;;;;;;7.94;86.14;100156.59;5072136;28;20028;-53
2022/04/06 05:20:38;;;;;;;23.52;12.80;;;;;;;7.99;85.62;100152.13;5072148;28;20429;-55
2022/04/06 05:23:03;;;;;;;23.83;12.77;;;;;;;8.06;85.50;100153.38;5071977;28;20543;-55
2022/04/06 05:25:28;;;;;;;26.27;13.60;;;;;;;8.03;86.23;100148.47;5072784;28;20032;-53
2022/04/06 05:27:56;;;;;;;21.58;13.27;;;;;;;8.00;86.13;100151.81;5075921;28;20029;-55
2022/04/06 05:30:23;;;;;;;23.35;12.38;;;;;;;8.03;85.77;100148.47;5075718;28;20124;-56
2022/04/06 05:32:51;;;;;;;27.83;13.25;;;;;;;8.04;85.41;100149.25;5075914;28;20449;-56
2022/04/06 05:35:18;;;;;;;23.92;12.35;;;;;;;8.04;85.85;100139.06;5075601;28;20044;-56
2022/04/06 05:37:44;;;;;;;27.27;11.95;;;;;;;8.04;85.68;100141.81;5075518;28;20036;-53
2022/04/06 05:40:12;;;;;;;25.38;13.77;;;;;;;8.02;85.63;100132.25;5075742;28;20035;-55
2022/04/06 05:42:38;;;;;;;25.10;11.63;;;;;;;8.05;85.64;100140.72;5075848;28;20052;-56
2022/04/06 05:45:06;;;;;;;27.27;11.73;;;;;;;8.07;85.34;100141.22;5075482;28;20016;-55
2022/04/06 05:47:32;;;;;;;25.63;11.63;;;;;;;8.06;85.42;100141.50;5076355;28;20361;-55
2022/04/06 05:49:57;;;;;;;20.65;10.45;;;;;;;8.07;85.17;100137.63;5075912;28;20479;-52
2022/04/06 05:52:23;;;;;;;24.27;11.20;;;;;;;8.05;85.05;100137.94;5057774;28;20510;-53
2022/04/06 05:54:48;;;;;;;21.55;10.77;;;;;;;8.09;84.80;100136.19;5075861;28;20043;-55
2022/04/06 05:57:13;;;;;;;23.02;11.27;;;;;;;8.08;84.90;100140.06;5081352;28;20418;-54
2022/04/06 05:59:40;;;;;;;23.42;10.70;;;;;;;8.10;84.79;100132.31;5092668;28;20024;-56
2022/04/06 06:02:07;;;;;;;20.42;10.77;;;;;;;8.17;84.18;100142.94;5095721;28;20055;-52
2022/04/06 06:04:33;;;;;;;18.38;9.48;;;;;;;8.20;83.70;100142.34;5095745;28;20161;-55
2022/04/06 06:06:58;;;;;;;22.05;9.90;;;;;;;8.15;84.05;100147.94;5095399;28;20024;-54
2022/04/06 06:09:24;;;;;;;22.48;10.32;;;;;;;8.16;83.99;100135.78;5095909;28;20039;-57
2022/04/06 06:11:49;;;;;;;20.48;11.05;;;;;;;8.21;83.67;100138.47;5095137;28;20028;-56
2022/04/06 06:14:14;;;;;;;21.98;10.52;;;;;;;8.25;83.88;100153.25;5095509;28;20035;-53
2022/04/06 06:16:39;;;;;;;20.48;10.25;;;;;;;8.30;82.68;100148.75;5094922;28;20115;-54
2022/04/06 06:19:05;;;;;;;19.55;9.77;;;;;;;8.30;82.51;100143.25;5094859;28;20457;-54
2022/04/06 06:21:32;;;;;;;20.40;10.35;;;;;;;8.37;81.99;100147.19;5093948;28;20024;-53
2022/04/06 06:24:02;;;;;;;22.02;11.15;;;;;;;8.42;81.30;100149.84;5094140;28;20111;-53
2022/04/06 06:26:28;;;;;;;16.92;9.25;;;;;;;8.47;80.29;100154.47;5086978;28;20039;-55
2022/04/06 06:28:53;;;;;;;20.30;9.68;;;;;;;8.48;79.87;100138.75;5081369;28;20028;-53
2022/04/06 06:31:18;;;;;;;20.85;9.40;;;;;;;8.50;79.28;100156.59;5072543;28;20030;-53
2022/04/06 06:33:44;;;;;;;16.55;9.02;;;;;;;8.51;78.33;100149.97;5054590;28;20511;-54
2022/04/06 06:36:09;;;;;;;19.08;9.68;;;;;;;8.56;77.84;100149.88;5071370;28;20028;-54
2022/04/06 06:38:34;;;;;;;20.55;10.05;;;;;;;8.61;76.77;100151.69;5071031;28;20047;-54
2022/04/06 06:40:59;;;;;;;18.60;9.32;;;;;;;8.57;76.87;100145.16;5077586;28;20400;-54
2022/04/06 06:43:24;;;;;;;17.73;9.18;;;;;;;8.63;75.07;100138.41;5084327;28;20036;-54
2022/04/06 06:45:50;;;;;;;17.77;9.10;;;;;;;8.59;75.02;100137.38;5092048;28;20032;-55
2022/04/06 06:48:15;;;;;;;15.68;8.68;;;;;;;8.62;74.40;100142.28;5082966;28;20177;-55
2022/04/06 06:50:40;;;;;;;17.10;8.32;;;;;;;8.66;73.43;100131.47;5071246;28;20024;-55
2022/04/06 06:53:06;;;;;;;19.00;9.10;;;;;;;8.69;73.30;100137.16;5071870;28;20039;-55
2022/04/06 06:55:32;;;;;;;15.88;8.60;;;;;;;8.70;73.20;100129.69;5071555;28;20481;-55
2022/04/06 06:57:57;;;;;;;16.90;8.52;;;;;;;8.75;72.78;100135.09;5071448;28;20044;-56
2022/04/06 07:00:22;;;;;;;15.13;8.35;;;;;;;8.82;71.57;100123.66;5071470;28;20029;-55
2022/04/06 07:02:47;;;;;;;16.98;9.10;;;;;;;8.87;72.06;100121.59;5071555;28;20028;-56
2022/04/06 07:05:13;;;;;;;13.77;8.55;;;;;;;8.92;71.09;100126.16;5073902;28;20055;-56
2022/04/06 07:07:53;;;;;;;14.55;8.50;;;;;;;8.93;71.41;100129.72;5071532;28;20139;-55
2022/04/06 07:10:20;;;;;;;17.95;8.82;;;;;;;8.92;71.48;100130.84;5071285;28;20170;-55
2022/04/06 07:12:46;;;;;;;17.95;8.48;;;;;;;8.95;70.71;100122.75;5071366;28;20036;-55
2022/04/06 07:15:11;;;;;;;14.07;8.05;;;;;;;8.97;70.44;100128.00;5071816;28;20511;-55
2022/04/06 07:17:37;;;;;;;17.77;8.45;;;;;;;9.00;70.60;100128.19;5071062;28;20025;-55
2022/04/06 07:20:02;;;;;;;18.95;8.20;;;;;;;9.01;70.39;100118.78;5071070;28;20444;-54
2022/04/06 07:22:28;;;;;;;17.67;8.23;;;;;;;9.04;70.42;100123.66;5071336;28;20070;-54
2022/04/06 07:24:53;;;;;;;15.07;8.18;;;;;;;9.04;70.15;100112.59;5071349;28;20028;-54
2022/04/06 07:27:18;;;;;;;17.45;8.45;;;;;;;9.10;70.32;100115.25;5071212;28;20029;-55
2022/04/06 07:29:44;;;;;;;15.15;8.68;;;;;;;9.09;70.12;100108.09;5070966;28;20089;-54
2022/04/06 07:32:09;;;;;;;16.30;8.20;;;;;;;9.13;70.45;100098.06;5070942;28;20077;-55
2022/04/06 07:34:35;;;;;;;16.63;8.27;;;;;;;9.14;69.77;100097.75;5071427;28;20020;-53
2022/04/06 07:37:01;;;;;;;15.75;8.35;;;;;;;9.15;70.38;100104.91;5070876;28;20028;-56
2022/04/06 07:39:27;;;;;;;15.65;8.32;;;;;;;9.14;70.91;100103.28;5071970;28;20043;-56
2022/04/06 07:41:56;;;;;;;17.80;8.40;;;;;;;9.11;71.71;100100.34;5071869;28;20067;-57
2022/04/06 07:44:21;;;;;;;17.25;8.50;;;;;;;9.09;72.92;100103.38;5071564;28;20094;-52
2022/04/06 07:46:47;;;;;;;17.48;9.07;;;;;;;9.08;73.91;100098.19;5071608;28;20465;-56
2022/04/06 07:49:12;;;;;;;19.25;9.88;;;;;;;9.14;74.14;100088.66;5071000;28;20029;-56
2022/04/06 07:51:37;;;;;;;18.63;9.93;;;;;;;9.15;74.69;100084.75;5071532;28;20103;-53
2022/04/06 07:54:02;;;;;;;22.23;10.10;;;;;;;9.19;75.18;100080.25;5071043;28;20064;-51
2022/04/06 07:56:28;;;;;;;25.17;9.98;;;;;;;9.22;75.06;100074.09;5071282;28;20028;-56
2022/04/06 07:58:53;;;;;;;19.95;8.98;;;;;;;9.31;75.33;100076.91;5072535;28;20070;-56
2022/04/06 08:01:19;;;;;;;20.77;10.00;;;;;;;9.38;75.15;100070.94;5093159;28;20030;-52
2022/04/06 08:03:44;;;;;;;19.80;10.27;;;;;;;9.46;75.49;100070.16;5075219;28;20024;-56
2022/04/06 08:06:10;;;;;;;22.73;10.35;;;;;;;9.49;75.14;100070.34;5093308;28;20051;-55
2022/04/06 08:08:35;;;;;;;19.38;10.20;;;;;;;9.46;75.73;100070.16;5093395;28;20445;-56
2022/04/06 08:11:00;;;;;;;20.40;10.27;;;;;;;9.44;75.66;100076.00;5093203;28;20020;-54
2022/04/06 08:13:26;;;;;;;19.05;10.30;;;;;;;9.41;74.59;100075.81;5093239;28;20073;-54
2022/04/06 08:15:51;;;;;;;20.27;10.23;;;;;;;9.36;75.05;100079.50;5093452;28;20099;-56
2022/04/06 08:18:16;;;;;;;22.15;10.23;;;;;;;9.31;75.68;100088.75;5092824;28;20046;-56
2022/04/06 08:20:42;;;;;;;20.85;10.38;;;;;;;9.27;76.03;100086.94;5092992;28;20032;-57
2022/04/06 08:23:07;;;;;;;21.08;10.20;;;;;;;9.23;75.15;100072.16;5092732;28;20069;-56
2022/04/06 08:25:33;;;;;;;20.27;10.48;;;;;;;9.23;75.53;100083.19;5092809;28;20531;-57
2022/04/06 08:27:58;;;;;;;19.55;10.20;;;;;;;9.16;75.91;100076.16;5092772;28;20020;-56
2022/04/06 08:30:23;;;;;;;20.17;10.52;;;;;;;9.17;76.49;100083.31;5092887;28;20523;-56
2022/04/06 08:32:49;;;;;;;21.25;10.45;;;;;;;9.20;75.93;100082.69;5092675;28;20034;-57
2022/04/06 08:35:17;;;;;;;20.38;9.93;;;;;;;9.28;75.63;100081.13;5075233;28;20054;-58
2022/04/06 08:37:42;;;;;;;20.42;10.23;;;;;;;9.30;76.21;100078.88;5072555;28;20025;-57
2022/04/06 08:40:09;;;;;;;21.27;9.98;;;;;;;9.41;75.41;100084.09;5072368;28;20074;-55
2022/04/06 08:42:35;;;;;;;19.02;9.82;;;;;;;9.37;75.09;100075.63;5072484;28;20499;-55
2022/04/06 08:45:01;;;;;;;19.48;10.00;;;;;;;9.35;75.42;100075.16;5072347;28;20033;-52
2022/04/06 08:47:29;;;;;;;19.98;10.40;;;;;;;9.37;75.73;100061.81;5072409;28;20025;-55
2022/04/06 08:49:55;;;;;;;21.08;10.13;;;;;;;9.44;75.11;100067.72;5072161;28;20028;-55
2022/04/06 08:52:21;;;;;;;21.15;10.20;;;;;;;9.55;75.56;100067.41;5072364;28;20032;-56
2022/04/06 08:54:47;;;;;;;18.35;9.75;;;;;;;9.64;74.97;100071.03;5072298;28;20025;-56
2022/04/06 08:57:13;;;;;;;19.52;9.98;;;;;;;9.63;74.28;100070.22;5072260;28;20028;-56
2022/04/06 08:59:38;;;;;;;19.50;10.05;;;;;;;9.70;74.87;100069.78;5072204;28;20031;-56
2022/04/06 09:02:04;;;;;;;15.82;9.20;;;;;;;9.68;75.01;100063.75;5074651;28;20021;-55
2022/04/06 09:04:34;;;;;;;15.95;8.95;;;;;;;9.76;74.49;100065.72;5075661;28;20104;-56
2022/04/06 09:07:07;;;;;;;21.13;9.80;;;;;;;9.59;75.57;100079.47;5076068;28;20025;-54
2022/04/06 09:09:34;;;;;;;23.30;10.15;;;;;;;9.58;75.20;100067.63;5058134;28;20056;-56
2022/04/06 09:12:05;;;;;;;19.90;9.57;;;;;;;9.58;75.89;100073.16;5075735;28;20036;-55
2022/04/06 09:14:32;;;;;;;18.38;9.50;;;;;;;9.60;75.73;100070.06;5075701;28;20020;-56
2022/04/06 09:17:05;;;;;;;17.55;9.48;;;;;;;9.71;75.85;100070.56;5076017;28;20448;-54
2022/04/06 09:19:31;;;;;;;16.10;9.65;;;;;;;9.68;76.14;100066.50;5076120;28;20109;-56
2022/04/06 09:21:57;;;;;;;19.15;9.35;;;;;;;9.69;76.36;100059.84;5075627;28;20024;-56
2022/04/06 09:24:24;;;;;;;19.40;9.50;;;;;;;9.60;76.85;100068.09;5075580;28;20025;-56
2022/04/06 09:26:56;;;;;;;19.58;10.05;;;;;;;9.64;78.27;100079.31;5075914;28;20025;-54
2022/04/06 09:29:21;;;;;;;18.88;9.45;;;;;;;9.61;78.43;100068.94;5075574;28;20036;-56
2022/04/06 09:31:48;;;;;;;18.67;9.73;;;;;;;9.63;77.71;100066.66;5075606;28;20513;-55
2022/04/06 09:34:14;;;;;;;19.60;10.05;;;;;;;9.60;78.03;100059.81;5075634;28;20020;-55
2022/04/06 09:36:39;;;;;;;19.20;9.65;;;;;;;9.58;78.09;100069.56;5075706;28;20020;-56
2022/04/06 09:39:05;;;;;;;18.65;10.20;;;;;;;9.56;77.98;100069.06;5075585;28;20059;-56
2022/04/06 09:41:31;;;;;;;19.48;9.85;;;;;;;9.56;77.89;100067.13;5075300;28;20074;-57
2022/04/06 09:44:08;;;;;;;21.58;10.57;;;;;;;9.57;78.07;100065.16;5075497;28;20032;-57
2022/04/06 09:49:19;;;;;;;19.23;9.93;;;;;;;9.54;77.81;100058.34;5075239;28;20475;-55
2022/04/06 09:51:47;;;;;;;18.65;10.50;;;;;;;9.55;77.48;100062.72;5057242;28;20485;-56
2022/04/06 09:54:13;;;;;;;16.13;9.48;;;;;;;9.57;77.26;100065.16;5075277;28;20032;-57
2022/04/06 09:56:40;;;;;;;18.10;10.27;;;;;;;9.65;77.54;100054.16;5075447;28;20071;-56
2022/04/06 09:59:06;;;;;;;16.88;9.82;;;;;;;9.68;77.31;100058.22;5076087;28;20557;-56
2022/04/06 10:01:34;;;;;;;19.70;10.25;;;;;;;9.64;78.19;100046.19;5093768;28;20468;-55
2022/04/06 10:04:04;;;;;;;17.92;9.50;;;;;;;9.67;78.49;100054.66;5093341;28;20020;-55
2022/04/06 10:06:35;;;;;;;19.90;10.05;;;;;;;9.65;78.93;100051.41;5093360;28;20060;-55
2022/04/06 10:09:06;;;;;;;20.23;10.35;;;;;;;9.63;79.81;100050.91;5093294;28;20028;-53
2022/04/06 10:11:34;;;;;;;20.83;11.05;;;;;;;9.66;80.15;100043.91;5093020;28;20419;-54
2022/04/06 10:14:00;;;;;;;20.42;10.02;;;;;;;9.65;79.59;100047.81;5092070;28;20093;-56
2022/04/06 10:16:26;;;;;;;18.52;9.90;;;;;;;9.67;78.86;100042.78;5092913;28;20032;-56
2022/04/06 10:18:53;;;;;;;17.92;10.23;;;;;;;9.61;79.76;100035.78;5092989;28;20100;-57
2022/04/06 10:22:11;;;;;;;20.38;10.45;;;;;;;9.64;79.99;100043.41;5093112;28;20032;-56
2022/04/06 10:25:14;;;;;;;18.63;10.27;;;;;;;9.59;80.52;100038.84;4991003;28;20062;-56
2022/04/06 10:27:48;;;;;;;22.13;10.73;;;;;;;9.57;80.72;100041.13;5092821;28;20088;-56
2022/04/06 10:30:19;;;;;;;19.40;10.75;;;;;;;9.60;80.94;100040.47;5093009;28;20032;-56
2022/04/06 10:32:46;;;;;;;23.48;10.30;;;;;;;9.60;81.01;100032.19;5092804;28;20500;-56
2022/04/06 10:35:32;;;;;;;20.65;10.38;;;;;;;9.55;81.68;100035.13;5092644;28;20384;-55
2022/04/06 10:38:00;;;;;;;18.58;10.10;;;;;;;9.54;80.88;100035.44;5092537;28;20028;-56
2022/04/06 10:40:31;;;;;;;19.25;10.45;;;;;;;9.49;81.83;100030.88;5092544;28;20496;-54
2022/04/06 10:42:56;;;;;;;19.60;10.10;;;;;;;9.51;81.70;100034.94;5092642;28;20031;-56
2022/04/06 10:45:24;;;;;;;18.58;10.13;;;;;;;9.53;81.67;100029.09;5092384;28;20050;-55
2022/04/06 10:48:16;;;;;;;21.80;10.80;;;;;;;9.58;81.42;100023.44;5092349;28;20032;-55
2022/04/06 10:50:43;;;;;;;20.23;9.93;;;;;;;9.56;80.65;100022.13;5092206;28;20028;-57
2022/04/06 10:53:17;;;;;;;18.15;9.63;;;;;;;9.59;80.85;100033.31;5092535;28;20081;-55
2022/04/06 10:55:55;;;;;;;21.42;10.02;;;;;;;9.62;80.38;100026.38;5092328;28;20024;-54
2022/04/06 10:58:23;;;;;;;18.67;9.50;;;;;;;9.49;80.98;100031.69;5092198;28;20030;-56
2022/04/06 11:01:15;;;;;;;18.75;9.75;;;;;;;9.54;81.04;100022.44;5092529;28;20020;-56
2022/04/06 11:03:56;;;;;;;17.52;9.65;;;;;;;9.55;80.65;100024.06;5092185;28;20066;-55
2022/04/06 11:06:40;;;;;;;18.60;9.70;;;;;;;9.58;80.44;100017.91;5091905;28;20534;-54
2022/04/06 11:12:13;;;;;;;17.48;10.10;;;;;;;9.52;80.44;100014.50;5088153;28;19938;-56
2022/04/06 11:14:39;;;;;;;18.35;9.38;;;;;;;9.56;79.47;100005.53;5091931;28;20110;-56
2022/04/06 11:17:30;;;;;;;17.48;9.57;;;;;;;9.55;80.43;100006.69;5091895;28;20028;-56
2022/04/06 11:19:56;;;;;;;17.13;9.63;;;;;;;9.52;80.27;100003.44;5085744;28;20115;-56
2022/04/06 11:22:21;;;;;;;17.58;9.70;;;;;;;9.60;80.20;100006.53;5078192;28;20119;-55
2022/04/06 11:24:47;;;;;;;18.38;9.85;;;;;;;9.69;80.10;99996.34;5071371;28;20078;-55
2022/04/06 11:27:26;;;;;;;18.02;9.80;;;;;;;9.72;79.38;99995.72;5076420;28;20055;-56
2022/04/06 11:30:18;;;;;;;17.15;9.60;;;;;;;9.79;78.88;99998.81;5054813;28;20374;-57